createdAt,value
2018-09-02T00:01:27.004Z,11.30
2018-09-02T00:03:54.549Z,11.30
2018-09-02T00:06:22.457Z,11.30
2018-09-02T00:08:50.114Z,11.30
2018-09-02T00:11:17.678Z,11.30
2018-09-02T00:13:45.260Z,11.50
2018-09-02T00:16:12.858Z,11.40
2018-09-02T00:18:40.653Z,11.30
2018-09-02T00:21:08.394Z,11.30
2018-09-02T00:23:36.035Z,11.60
2018-09-02T00:26:03.800Z,11.60
2018-09-02T00:28:31.237Z,11.40
2018-09-02T00:30:58.692Z,11.40
2018-09-02T00:33:26.120Z,11.40
2018-09-02T00:35:53.661Z,11.30
2018-09-02T00:38:21.203Z,11.30
2018-09-02T00:40:48.722Z,11.20
2018-09-02T00:43:16.245Z,11.30
2018-09-02T00:45:43.918Z,11.00
2018-09-02T00:48:11.583Z,11.10
2018-09-02T00:50:39.289Z,11.00
2018-09-02T00:53:06.812Z,11.00
2018-09-02T00:55:46.582Z,11.30
2018-09-02T00:58:14.275Z,11.10
2018-09-02T01:00:42.134Z,10.90
2018-09-02T01:03:10.288Z,10.80
2018-09-02T01:05:38.095Z,10.80
2018-09-02T01:08:08.013Z,10.70
2018-09-02T01:10:35.860Z,10.70
2018-09-02T01:13:03.577Z,10.70
2018-09-02T01:15:31.513Z,10.70
2018-09-02T01:17:59.270Z,10.70
2018-09-02T01:20:27.244Z,10.70
2018-09-02T01:22:55.033Z,10.70
2018-09-02T01:25:22.664Z,10.60
2018-09-02T01:27:50.433Z,10.60
2018-09-02T01:30:18.840Z,10.80
2018-09-02T01:32:46.656Z,10.70
2018-09-02T01:35:19.923Z,10.60
2018-09-02T01:37:47.907Z,10.60
2018-09-02T01:40:15.657Z,10.70
2018-09-02T01:42:43.322Z,10.60
2018-09-02T01:45:11.009Z,10.50
2018-09-02T01:47:39.060Z,10.60
2018-09-02T01:50:07.026Z,10.60
2018-09-02T01:52:35.971Z,10.40
2018-09-02T01:55:03.844Z,10.40
2018-09-02T01:57:31.666Z,10.50
2018-09-02T01:59:59.663Z,10.60
2018-09-02T02:02:27.391Z,10.50
2018-09-02T02:04:55.255Z,10.60
2018-09-02T02:07:22.811Z,10.60
2018-09-02T02:09:50.453Z,10.50
2018-09-02T02:12:17.933Z,10.60
2018-09-02T02:14:45.601Z,10.70
2018-09-02T02:17:13.333Z,10.50
2018-09-02T02:19:41.306Z,10.50
2018-09-02T02:22:09.102Z,10.60
2018-09-02T02:24:36.665Z,10.50
2018-09-02T02:27:04.218Z,10.60
2018-09-02T02:29:31.811Z,10.60
2018-09-02T02:31:59.495Z,10.50
2018-09-02T02:34:27.171Z,10.40
2018-09-02T02:36:54.833Z,10.30
2018-09-02T02:39:22.703Z,10.40
2018-09-02T02:41:51.172Z,10.40
2018-09-02T02:44:19.004Z,10.30
2018-09-02T02:46:47.152Z,10.20
2018-09-02T02:49:14.991Z,10.30
2018-09-02T02:51:42.709Z,10.30
2018-09-02T02:54:10.998Z,10.50
2018-09-02T02:56:38.811Z,10.40
2018-09-02T02:59:06.537Z,10.40
2018-09-02T03:01:36.866Z,10.30
2018-09-02T03:04:05.102Z,10.40
2018-09-02T03:06:33.949Z,10.40
2018-09-02T03:09:01.750Z,10.40
2018-09-02T03:11:29.637Z,10.50
2018-09-02T03:13:57.514Z,10.50
2018-09-02T03:16:25.297Z,10.50
2018-09-02T03:18:53.721Z,10.50
2018-09-02T03:21:21.556Z,10.50
2018-09-02T03:23:49.476Z,10.30
2018-09-02T03:26:17.157Z,10.30
2018-09-02T03:28:45.147Z,10.50
2018-09-02T03:31:13.004Z,10.30
2018-09-02T03:33:40.665Z,10.30
2018-09-02T03:36:08.599Z,10.20
2018-09-02T03:38:36.344Z,10.20
2018-09-02T03:41:04.267Z,10.20
2018-09-02T03:43:32.193Z,10.20
2018-09-02T03:45:59.829Z,10.20
2018-09-02T03:48:27.718Z,10.20
2018-09-02T03:50:55.609Z,10.10
2018-09-02T03:53:23.975Z,10.10
2018-09-02T03:55:52.064Z,10.10
2018-09-02T03:58:21.931Z,10.10
2018-09-02T04:00:49.853Z,10.10
2018-09-02T04:03:17.446Z,10.10
2018-09-02T04:05:45.457Z,10.20
2018-09-02T04:08:13.262Z,10.10
2018-09-02T04:10:40.955Z,9.90
2018-09-02T04:13:08.828Z,9.60
2018-09-02T04:15:36.469Z,10.10
2018-09-02T04:18:04.853Z,10.00
2018-09-02T04:20:34.406Z,10.00
2018-09-02T04:23:02.899Z,9.90
2018-09-02T04:25:31.514Z,10.00
2018-09-02T04:27:59.332Z,10.00
2018-09-02T04:30:27.614Z,10.10
2018-09-02T04:32:55.562Z,10.10
2018-09-02T04:35:24.876Z,10.10
2018-09-02T04:37:53.148Z,10.00
2018-09-02T04:40:22.104Z,10.00
2018-09-02T04:42:49.865Z,10.00
2018-09-02T04:45:17.790Z,10.10
2018-09-02T04:47:45.944Z,10.00
2018-09-02T04:50:17.729Z,10.00
2018-09-02T04:52:45.443Z,10.00
2018-09-02T04:55:13.367Z,9.90
2018-09-02T04:57:42.083Z,10.00
2018-09-02T05:00:09.848Z,9.90
2018-09-02T05:02:37.519Z,10.00
2018-09-02T05:05:05.263Z,10.10
2018-09-02T05:07:33.748Z,10.10
2018-09-02T05:11:31.637Z,10.10
2018-09-02T05:13:59.618Z,10.20
2018-09-02T05:16:27.263Z,9.50
2018-09-02T05:18:55.185Z,10.20
2018-09-02T05:21:23.059Z,10.30
2018-09-02T05:23:50.824Z,10.40
2018-09-02T05:26:18.337Z,10.50
2018-09-02T05:28:45.922Z,10.70
2018-09-02T05:31:13.474Z,10.80
2018-09-02T05:33:40.996Z,11.00
2018-09-02T05:36:08.349Z,11.20
2018-09-02T05:38:35.745Z,11.40
2018-09-02T05:41:03.112Z,11.60
2018-09-02T05:43:30.484Z,11.70
2018-09-02T05:45:57.919Z,11.90
2018-09-02T05:48:25.277Z,12.00
2018-09-02T05:50:52.626Z,12.10
2018-09-02T05:53:19.970Z,12.60
2018-09-02T05:55:47.324Z,12.60
2018-09-02T05:58:14.678Z,12.40
2018-09-02T06:00:42.065Z,12.80
2018-09-02T06:03:09.414Z,12.90
2018-09-02T06:05:36.822Z,13.20
2018-09-02T06:08:04.167Z,13.30
2018-09-02T06:10:31.552Z,14.10
2018-09-02T06:12:58.891Z,14.10
2018-09-02T06:15:26.236Z,14.30
2018-09-02T06:17:53.597Z,14.80
2018-09-02T06:20:21.016Z,14.50
2018-09-02T06:22:48.363Z,14.80
2018-09-02T06:25:15.692Z,15.10
2018-09-02T06:27:43.144Z,15.20
2018-09-02T06:30:10.653Z,15.20
2018-09-02T06:32:37.967Z,15.20
2018-09-02T06:35:05.331Z,15.40
2018-09-02T06:37:32.696Z,15.60
2018-09-02T06:40:00.030Z,15.50
2018-09-02T06:44:54.726Z,16.10
2018-09-02T06:47:22.051Z,16.20
2018-09-02T06:49:49.384Z,16.30
2018-09-02T06:52:17.650Z,15.90
2018-09-02T06:54:45.070Z,15.40
2018-09-02T06:57:12.422Z,15.60
2018-09-02T06:59:39.792Z,16.30
2018-09-02T07:02:07.163Z,15.90
2018-09-02T07:04:34.528Z,16.20
2018-09-02T07:07:01.945Z,16.20
2018-09-02T07:09:29.304Z,16.50
2018-09-02T07:11:56.635Z,17.20
2018-09-02T07:14:24.022Z,17.50
2018-09-02T07:16:51.338Z,17.20
2018-09-02T07:19:18.697Z,17.90
2018-09-02T07:21:46.038Z,18.20
2018-09-02T07:24:13.379Z,17.30
2018-09-02T07:26:40.823Z,17.30
2018-09-02T07:29:08.221Z,17.30
2018-09-02T07:31:35.590Z,17.90
2018-09-02T07:34:02.970Z,17.90
2018-09-02T07:36:30.329Z,18.00
2018-09-02T07:38:57.788Z,18.20
2018-09-02T07:41:25.143Z,17.80
2018-09-02T07:43:52.530Z,17.30
2018-09-02T07:46:19.893Z,18.30
2018-09-02T07:48:47.244Z,18.10
2018-09-02T07:51:14.604Z,18.20
2018-09-02T07:53:41.960Z,18.90
2018-09-02T07:56:09.512Z,18.40
2018-09-02T07:58:36.884Z,17.50
2018-09-02T08:01:04.679Z,17.80
2018-09-02T08:03:32.048Z,18.90
2018-09-02T08:05:59.384Z,19.00
2018-09-02T08:08:26.746Z,18.30
2018-09-02T08:10:54.107Z,18.50
2018-09-02T08:13:21.488Z,18.40
2018-09-02T08:15:48.853Z,18.70
2018-09-02T08:18:16.219Z,18.60
2018-09-02T08:20:43.552Z,19.30
2018-09-02T08:23:10.976Z,19.30
2018-09-02T08:25:38.337Z,18.90
2018-09-02T08:28:05.765Z,19.00
2018-09-02T08:33:05.660Z,19.10
2018-09-02T08:35:32.964Z,19.20
2018-09-02T08:38:00.322Z,19.10
2018-09-02T08:40:27.685Z,19.10
2018-09-02T08:42:55.146Z,19.20
2018-09-02T08:45:22.508Z,19.50
2018-09-02T08:47:50.371Z,19.50
2018-09-02T08:50:17.755Z,19.60
2018-09-02T08:52:45.183Z,19.00
2018-09-02T08:55:12.544Z,19.40
2018-09-02T08:57:39.925Z,19.50
2018-09-02T09:00:07.859Z,19.60
2018-09-02T09:02:35.237Z,19.80
2018-09-02T09:05:02.604Z,19.10
2018-09-02T09:07:31.002Z,18.80
2018-09-02T09:09:58.356Z,19.50
2018-09-02T09:12:25.857Z,19.70
2018-09-02T09:14:53.515Z,19.50
2018-09-02T09:17:20.916Z,19.80
2018-09-02T09:19:48.292Z,20.00
2018-09-02T09:22:15.727Z,19.60
2018-09-02T09:24:43.086Z,20.00
2018-09-02T09:27:10.467Z,19.80
2018-09-02T09:29:37.803Z,19.90
2018-09-02T09:32:05.207Z,19.50
2018-09-02T09:34:32.579Z,19.10
2018-09-02T09:36:59.940Z,19.30
2018-09-02T09:39:27.303Z,19.10
2018-09-02T09:41:54.751Z,19.10
2018-09-02T09:44:22.107Z,19.20
2018-09-02T09:46:49.512Z,19.30
2018-09-02T09:49:16.904Z,19.20
2018-09-02T09:51:44.303Z,18.80
2018-09-02T09:54:11.689Z,18.60
2018-09-02T09:56:39.050Z,18.50
2018-09-02T09:59:06.412Z,18.60
2018-09-02T10:01:33.760Z,18.50
2018-09-02T10:04:01.134Z,18.80
2018-09-02T10:06:28.466Z,19.00
2018-09-02T10:08:55.807Z,19.00
2018-09-02T10:11:23.165Z,18.70
2018-09-02T10:13:50.520Z,18.60
2018-09-02T10:16:17.898Z,18.90
2018-09-02T10:18:45.433Z,19.10
2018-09-02T10:21:12.961Z,19.10
2018-09-02T10:23:40.432Z,19.20
2018-09-02T10:26:07.791Z,19.30
2018-09-02T10:28:35.352Z,19.20
2018-09-02T10:31:02.809Z,19.20
2018-09-02T10:33:30.371Z,19.40
2018-09-02T10:35:58.449Z,19.70
2018-09-02T10:38:25.900Z,19.60
2018-09-02T10:40:53.308Z,19.50
2018-09-02T10:43:20.669Z,19.40
2018-09-02T10:45:48.023Z,19.50
2018-09-02T10:48:15.379Z,19.70
2018-09-02T10:50:42.713Z,19.70
2018-09-02T10:53:10.081Z,19.70
2018-09-02T10:55:37.595Z,19.70
2018-09-02T10:58:05.007Z,19.70
2018-09-02T11:00:32.335Z,20.10
2018-09-02T11:02:59.703Z,20.40
2018-09-02T11:05:27.051Z,20.00
2018-09-02T11:07:54.408Z,19.90
2018-09-02T11:10:21.829Z,20.20
2018-09-02T11:12:49.181Z,20.20
2018-09-02T11:15:16.624Z,20.40
2018-09-02T11:17:44.051Z,20.20
2018-09-02T11:20:11.480Z,20.10
2018-09-02T11:22:38.854Z,20.40
2018-09-02T11:25:06.212Z,20.20
2018-09-02T11:27:33.614Z,20.30
2018-09-02T11:30:00.980Z,20.40
2018-09-02T11:32:28.447Z,20.40
2018-09-02T11:34:55.792Z,20.50
2018-09-02T11:37:23.141Z,20.40
2018-09-02T11:39:50.485Z,20.40
2018-09-02T11:42:17.854Z,20.50
2018-09-02T11:44:45.233Z,20.70
2018-09-02T11:47:12.605Z,20.70
2018-09-02T11:49:39.942Z,20.90
2018-09-02T11:52:07.291Z,20.80
2018-09-02T11:54:34.648Z,20.70
2018-09-02T11:57:01.997Z,21.00
2018-09-02T11:59:29.367Z,21.10
2018-09-02T12:01:56.716Z,20.70
2018-09-02T12:04:24.063Z,20.50
2018-09-02T12:06:51.394Z,21.30
2018-09-02T12:09:18.724Z,21.20
2018-09-02T12:11:46.166Z,21.50
2018-09-02T12:14:13.476Z,21.90
2018-09-02T12:16:40.837Z,21.70
2018-09-02T12:19:08.181Z,21.30
2018-09-02T12:21:35.547Z,21.50
2018-09-02T12:24:02.904Z,21.50
2018-09-02T12:26:30.251Z,21.20
2018-09-02T12:28:57.588Z,21.40
2018-09-02T12:31:24.993Z,22.00
2018-09-02T12:33:52.352Z,22.20
2018-09-02T12:36:19.707Z,22.30
2018-09-02T12:38:47.063Z,22.80
2018-09-02T12:41:14.439Z,22.50
2018-09-02T12:43:41.795Z,22.70
2018-09-02T12:46:09.145Z,22.00
2018-09-02T12:48:36.560Z,21.60
2018-09-02T12:51:03.975Z,22.20
2018-09-02T12:53:31.430Z,22.70
2018-09-02T12:55:58.841Z,22.50
2018-09-02T12:58:26.198Z,22.80
2018-09-02T13:00:53.611Z,22.10
2018-09-02T13:03:20.977Z,22.00
2018-09-02T13:05:48.349Z,21.90
2018-09-02T13:08:15.851Z,21.80
2018-09-02T13:10:43.197Z,21.80
2018-09-02T13:13:10.620Z,22.00
2018-09-02T13:15:37.985Z,22.20
2018-09-02T13:18:05.435Z,22.20
2018-09-02T13:20:32.785Z,22.00
2018-09-02T13:23:00.140Z,22.10
2018-09-02T13:25:27.533Z,22.20
2018-09-02T13:27:54.882Z,22.40
2018-09-02T13:30:22.236Z,22.10
2018-09-02T13:32:49.605Z,21.90
2018-09-02T13:35:16.933Z,22.10
2018-09-02T13:37:44.339Z,22.10
2018-09-02T13:40:11.770Z,22.00
2018-09-02T13:42:39.171Z,22.10
2018-09-02T13:45:07.177Z,22.10
2018-09-02T13:47:34.750Z,22.20
2018-09-02T13:50:02.150Z,22.10
2018-09-02T13:52:29.534Z,22.20
2018-09-02T13:54:56.916Z,22.10
2018-09-02T13:57:24.296Z,22.10
2018-09-02T13:59:51.737Z,21.90
2018-09-02T14:02:19.083Z,21.80
2018-09-02T14:04:46.456Z,21.50
2018-09-02T14:07:13.824Z,21.50
2018-09-02T14:09:41.156Z,21.50
2018-09-02T14:12:08.557Z,21.80
2018-09-02T14:14:35.912Z,22.10
2018-09-02T14:17:03.281Z,22.30
2018-09-02T14:19:30.701Z,22.10
2018-09-02T14:21:58.088Z,22.00
2018-09-02T14:24:25.462Z,21.90
2018-09-02T14:26:52.878Z,22.20
2018-09-02T14:29:20.344Z,22.20
2018-09-02T14:31:47.756Z,22.00
2018-09-02T14:34:15.121Z,22.10
2018-09-02T14:36:42.476Z,22.40
2018-09-02T14:39:11.462Z,22.60
2018-09-02T14:41:38.834Z,22.50
2018-09-02T14:44:06.237Z,22.50
2018-09-02T14:46:33.632Z,22.20
2018-09-02T14:49:00.985Z,22.00
2018-09-02T14:51:28.345Z,21.70
2018-09-02T14:53:55.713Z,21.50
2018-09-02T14:56:23.060Z,21.40
2018-09-02T14:58:50.437Z,21.20
2018-09-02T15:01:17.906Z,21.30
2018-09-02T15:03:45.243Z,21.30
2018-09-02T15:06:12.664Z,21.40
2018-09-02T15:08:40.645Z,21.60
2018-09-02T15:11:08.026Z,21.70
2018-09-02T15:13:35.429Z,21.70
2018-09-02T15:16:02.833Z,21.60
2018-09-02T15:18:30.295Z,21.80
2018-09-02T15:20:57.637Z,21.70
2018-09-02T15:23:24.985Z,21.80
2018-09-02T15:25:52.322Z,21.70
2018-09-02T15:28:19.711Z,21.80
2018-09-02T15:30:47.029Z,21.50
2018-09-02T15:33:14.612Z,21.40
2018-09-02T15:35:42.012Z,21.20
2018-09-02T15:38:09.436Z,21.20
2018-09-02T15:40:36.792Z,21.20
2018-09-02T15:43:04.286Z,21.00
2018-09-02T15:45:31.662Z,21.20
2018-09-02T15:47:59.473Z,21.20
2018-09-02T15:50:26.836Z,21.40
2018-09-02T15:52:54.195Z,21.70
2018-09-02T15:55:21.563Z,21.80
2018-09-02T15:57:48.935Z,21.90
2018-09-02T16:00:16.287Z,22.20
2018-09-02T16:02:43.646Z,22.00
2018-09-02T16:05:11.061Z,21.60
2018-09-02T16:07:38.422Z,21.50
2018-09-02T16:10:05.831Z,21.60
2018-09-02T16:12:33.215Z,21.40
2018-09-02T16:15:00.596Z,21.10
2018-09-02T16:17:28.217Z,20.90
2018-09-02T16:19:55.604Z,20.80
2018-09-02T16:22:23.124Z,20.80
2018-09-02T16:24:50.492Z,20.80
2018-09-02T16:27:17.854Z,20.80
2018-09-02T16:29:45.368Z,20.70
2018-09-02T16:32:12.746Z,20.70
2018-09-02T16:34:40.152Z,20.70
2018-09-02T16:37:08.322Z,20.70
2018-09-02T16:39:35.696Z,20.80
2018-09-02T16:42:03.088Z,20.80
2018-09-02T16:44:30.433Z,20.70
2018-09-02T16:46:57.796Z,20.70
2018-09-02T16:49:25.140Z,20.60
2018-09-02T16:51:52.521Z,20.50
2018-09-02T16:54:19.907Z,20.40
2018-09-02T16:56:47.247Z,20.50
2018-09-02T16:59:14.756Z,20.40
2018-09-02T17:01:42.135Z,20.40
2018-09-02T17:04:09.702Z,20.70
2018-09-02T17:06:37.337Z,20.50
2018-09-02T17:09:07.375Z,20.60
2018-09-02T17:11:34.746Z,20.50
2018-09-02T17:14:02.072Z,20.60
2018-09-02T17:16:29.441Z,20.80
2018-09-02T17:19:00.941Z,20.50
2018-09-02T17:21:28.301Z,20.30
2018-09-02T17:23:55.668Z,20.50
2018-09-02T17:26:23.033Z,20.40
2018-09-02T17:28:50.398Z,20.20
2018-09-02T17:31:17.805Z,20.10
2018-09-02T17:33:45.160Z,20.00
2018-09-02T17:36:12.503Z,20.40
2018-09-02T17:38:39.850Z,20.30
2018-09-02T17:41:07.334Z,20.30
2018-09-02T17:43:34.694Z,20.20
2018-09-02T17:46:02.032Z,20.10
2018-09-02T17:48:29.355Z,20.00
2018-09-02T17:50:56.724Z,19.90
2018-09-02T17:53:24.078Z,19.80
2018-09-02T17:55:51.646Z,19.70
2018-09-02T17:58:18.978Z,19.60
2018-09-02T18:00:48.781Z,19.50
2018-09-02T18:03:16.133Z,19.50
2018-09-02T18:05:43.541Z,19.40
2018-09-02T18:08:10.940Z,19.20
2018-09-02T18:10:38.368Z,19.00
2018-09-02T18:13:05.843Z,18.70
2018-09-02T18:15:33.435Z,18.80
2018-09-02T18:18:00.902Z,18.80
2018-09-02T18:20:28.318Z,18.70
2018-09-02T18:22:56.099Z,18.50
2018-09-02T18:25:23.470Z,18.60
2018-09-02T18:27:53.958Z,18.40
2018-09-02T18:30:21.776Z,18.30
2018-09-02T18:32:49.273Z,18.40
2018-09-02T18:35:16.945Z,18.40
2018-09-02T18:37:44.398Z,18.40
2018-09-02T18:40:11.804Z,18.60
2018-09-02T18:42:39.164Z,18.60
2018-09-02T18:45:06.571Z,18.40
2018-09-02T18:47:33.973Z,18.30
2018-09-02T18:50:01.371Z,18.00
2018-09-02T18:52:29.606Z,18.20
2018-09-02T18:54:57.424Z,18.00
2018-09-02T18:57:25.193Z,17.70
2018-09-02T18:59:52.961Z,17.60
2018-09-02T19:02:20.562Z,17.60
2018-09-02T19:04:47.929Z,17.50
2018-09-02T19:07:15.252Z,17.40
2018-09-02T19:09:42.655Z,17.40
2018-09-02T19:12:10.377Z,17.30
2018-09-02T19:14:38.149Z,15.90
2018-09-02T19:17:05.915Z,17.20
2018-09-02T19:19:33.787Z,17.30
2018-09-02T19:22:01.658Z,17.20
2018-09-02T19:24:29.530Z,17.00
2018-09-02T19:26:57.299Z,16.90
2018-09-02T19:29:25.178Z,16.80
2018-09-02T19:31:52.940Z,16.80
2018-09-02T19:34:20.662Z,16.70
2018-09-02T19:36:48.108Z,16.80
2018-09-02T19:39:15.727Z,16.60
2018-09-02T19:41:43.095Z,16.70
2018-09-02T19:44:10.642Z,16.60
2018-09-02T19:46:38.073Z,16.70
2018-09-02T19:49:06.098Z,16.50
2018-09-02T19:51:33.630Z,16.50
2018-09-02T19:54:01.199Z,16.50
2018-09-02T19:56:28.704Z,16.40
2018-09-02T19:58:56.117Z,16.40
2018-09-02T20:01:23.646Z,16.40
2018-09-02T20:03:51.039Z,16.30
2018-09-02T20:06:18.367Z,16.30
2018-09-02T20:08:45.744Z,16.20
2018-09-02T20:11:13.212Z,16.10
2018-09-02T20:13:40.591Z,16.10
2018-09-02T20:16:08.231Z,16.00
2018-09-02T20:18:35.801Z,15.90
2018-09-02T20:21:03.296Z,15.70
2018-09-02T20:23:30.678Z,15.50
2018-09-02T20:25:58.067Z,15.60
2018-09-02T20:28:25.454Z,15.50
2018-09-02T20:30:52.839Z,15.40
2018-09-02T20:33:20.244Z,15.60
2018-09-02T20:35:47.649Z,15.50
2018-09-02T20:38:15.015Z,15.50
2018-09-02T20:40:42.431Z,15.50
2018-09-02T20:43:09.793Z,15.40
2018-09-02T20:45:37.183Z,15.40
2018-09-02T20:48:04.737Z,15.20
2018-09-02T20:50:32.330Z,15.20
2018-09-02T20:52:59.704Z,15.30
2018-09-02T20:55:27.077Z,15.50
2018-09-02T20:57:54.443Z,15.20
2018-09-02T21:00:21.796Z,15.20
2018-09-02T21:02:49.192Z,15.20
2018-09-02T21:05:17.060Z,15.00
2018-09-02T21:07:44.733Z,15.00
2018-09-02T21:10:12.085Z,15.00
2018-09-02T21:12:39.485Z,15.00
2018-09-02T21:15:06.823Z,14.90
2018-09-02T21:17:34.176Z,15.00
2018-09-02T21:20:01.596Z,15.00
2018-09-02T21:22:28.936Z,14.90
2018-09-02T21:24:56.292Z,15.00
2018-09-02T21:27:23.808Z,14.90
2018-09-02T21:29:51.239Z,15.00
2018-09-02T21:32:18.598Z,15.00
2018-09-02T21:34:45.952Z,15.00
2018-09-02T21:37:13.510Z,14.90
2018-09-02T21:39:40.821Z,14.90
2018-09-02T21:42:08.171Z,14.80
2018-09-02T21:44:35.505Z,14.80
2018-09-02T21:47:03.074Z,14.70
2018-09-02T21:49:30.431Z,14.70
2018-09-02T21:51:57.806Z,14.70
2018-09-02T21:54:25.197Z,14.70
2018-09-02T21:56:52.581Z,14.70
2018-09-02T21:59:19.944Z,14.80
2018-09-02T22:01:47.335Z,15.10
2018-09-02T22:04:14.688Z,15.40
2018-09-02T22:06:42.099Z,14.90
2018-09-02T22:09:14.691Z,14.80
2018-09-02T22:11:42.553Z,14.70
2018-09-02T22:14:10.618Z,14.70
2018-09-02T22:16:37.989Z,14.80
2018-09-02T22:19:05.597Z,14.70
2018-09-02T22:21:33.055Z,14.80
2018-09-02T22:24:01.151Z,14.70
2018-09-02T22:26:28.698Z,14.80
2018-09-02T22:28:56.119Z,14.80
2018-09-02T22:31:23.477Z,14.70
2018-09-02T22:33:50.967Z,14.60
2018-09-02T22:36:18.300Z,14.70
2018-09-02T22:38:45.731Z,14.70
2018-09-02T22:41:13.153Z,14.70
2018-09-02T22:43:41.120Z,14.70
2018-09-02T22:46:08.552Z,14.70
2018-09-02T22:48:35.909Z,14.60
2018-09-02T22:51:03.284Z,14.60
2018-09-02T22:53:30.646Z,14.50
2018-09-02T22:55:57.988Z,14.60
2018-09-02T22:58:25.330Z,14.60
2018-09-02T23:00:52.675Z,14.60
2018-09-02T23:03:20.010Z,14.50
2018-09-02T23:05:47.364Z,14.50
2018-09-02T23:08:14.691Z,14.50
2018-09-02T23:10:42.618Z,14.50
2018-09-02T23:13:10.004Z,14.40
2018-09-02T23:15:37.376Z,14.40
2018-09-02T23:18:04.743Z,14.50
2018-09-02T23:20:32.229Z,14.40
2018-09-02T23:22:59.624Z,14.50
2018-09-02T23:25:27.089Z,14.50
2018-09-02T23:27:54.475Z,14.50
2018-09-02T23:30:22.032Z,14.30
2018-09-02T23:32:49.443Z,14.40
2018-09-02T23:35:16.792Z,14.40
2018-09-02T23:37:44.244Z,14.50
2018-09-02T23:40:11.667Z,14.60
2018-09-02T23:42:39.056Z,14.50
2018-09-02T23:45:06.399Z,14.50
2018-09-02T23:47:33.887Z,14.50
2018-09-02T23:50:01.391Z,14.40
2018-09-02T23:52:28.880Z,14.50
2018-09-02T23:54:56.269Z,14.50
2018-09-02T23:57:23.656Z,14.40
2018-09-02T23:59:51.054Z,14.40
